Chicago, Illinois
Traffic Map
Current Weather Conditions
Chicago, Illinois
Scattered Clouds
Scattered Clouds
12°
Feels Like: 12°
Wind Chill: 12° Ceiling: Unl
Heat Index: 12° Visibility: 10mi
Dew Point: 10° Wind: 9mph
Humidity: 86% Direction: 330° (NNW)
Pressure: 30.17in Gusts: 0mph
Raw Report DataKMDW 160451Z 33008KT 10SM SCT023 12/10 A3017 RMK AO2 SLP216 T01220100
Traffic Incident Summary
Active as of:
Severity:
Category:
InformationThere was an issue retrieving the traffic information for this location. Please try a different location or try again shortly.
Advertisements
Track Severe Weather on mobile